sensor_id;sensor_type;location;lat;lon;timestamp;P1;durP1;ratioP1;P2;durP2;ratioP2
66741;SDS011;53654;54.152;19.432;2023-07-20T00:00:31;4.80;;;3.70;;
66741;SDS011;53654;54.152;19.432;2023-07-20T00:03:19;3.90;;;3.50;;
66741;SDS011;53654;54.152;19.432;2023-07-20T00:05:51;4.20;;;3.80;;
66741;SDS011;53654;54.152;19.432;2023-07-20T00:08:19;4.20;;;3.90;;
66741;SDS011;53654;54.152;19.432;2023-07-20T00:10:47;4.60;;;3.70;;
66741;SDS011;53654;54.152;19.432;2023-07-20T00:13:15;4.30;;;3.90;;
66741;SDS011;53654;54.152;19.432;2023-07-20T00:15:46;4.20;;;3.80;;
66741;SDS011;53654;54.152;19.432;2023-07-20T00:18:14;4.60;;;4.20;;
66741;SDS011;53654;54.152;19.432;2023-07-20T00:20:42;5.30;;;3.80;;
66741;SDS011;53654;54.152;19.432;2023-07-20T00:23:10;4.30;;;3.90;;
66741;SDS011;53654;54.152;19.432;2023-07-20T00:25:38;4.40;;;4.00;;
66741;SDS011;53654;54.152;19.432;2023-07-20T00:28:06;4.90;;;4.20;;
66741;SDS011;53654;54.152;19.432;2023-07-20T00:30:34;4.20;;;3.90;;
66741;SDS011;53654;54.152;19.432;2023-07-20T00:33:02;4.60;;;4.10;;
66741;SDS011;53654;54.152;19.432;2023-07-20T00:35:30;4.60;;;4.20;;
66741;SDS011;53654;54.152;19.432;2023-07-20T00:37:59;4.20;;;3.90;;
66741;SDS011;53654;54.152;19.432;2023-07-20T00:40:27;4.10;;;3.80;;
66741;SDS011;53654;54.152;19.432;2023-07-20T00:42:56;4.30;;;4.00;;
66741;SDS011;53654;54.152;19.432;2023-07-20T00:45:24;3.90;;;3.60;;
66741;SDS011;53654;54.152;19.432;2023-07-20T00:47:53;4.50;;;4.10;;
66741;SDS011;53654;54.152;19.432;2023-07-20T00:50:22;4.30;;;4.00;;
66741;SDS011;53654;54.152;19.432;2023-07-20T00:52:50;5.40;;;3.80;;
66741;SDS011;53654;54.152;19.432;2023-07-20T00:55:19;3.70;;;3.40;;
66741;SDS011;53654;54.152;19.432;2023-07-20T00:57:47;4.20;;;3.90;;
66741;SDS011;53654;54.152;19.432;2023-07-20T01:00:16;4.30;;;4.00;;
66741;SDS011;53654;54.152;19.432;2023-07-20T01:02:44;4.40;;;3.90;;
66741;SDS011;53654;54.152;19.432;2023-07-20T01:05:13;3.90;;;3.60;;
66741;SDS011;53654;54.152;19.432;2023-07-20T01:07:55;5.30;;;4.00;;
66741;SDS011;53654;54.152;19.432;2023-07-20T01:10:39;4.70;;;4.20;;
66741;SDS011;53654;54.152;19.432;2023-07-20T01:13:10;4.60;;;4.20;;
66741;SDS011;53654;54.152;19.432;2023-07-20T01:15:42;5.00;;;4.50;;
66741;SDS011;53654;54.152;19.432;2023-07-20T01:18:17;4.50;;;4.20;;
66741;SDS011;53654;54.152;19.432;2023-07-20T01:20:45;4.60;;;4.20;;
66741;SDS011;53654;54.152;19.432;2023-07-20T01:31:44;4.90;;;4.50;;
66741;SDS011;53654;54.152;19.432;2023-07-20T01:34:12;4.70;;;4.10;;
66741;SDS011;53654;54.152;19.432;2023-07-20T01:36:45;4.10;;;3.80;;
66741;SDS011;53654;54.152;19.432;2023-07-20T01:39:16;4.40;;;4.10;;
66741;SDS011;53654;54.152;19.432;2023-07-20T01:41:44;5.40;;;5.00;;
66741;SDS011;53654;54.152;19.432;2023-07-20T01:44:13;5.50;;;4.90;;
66741;SDS011;53654;54.152;19.432;2023-07-20T01:46:41;5.50;;;5.00;;
66741;SDS011;53654;54.152;19.432;2023-07-20T01:49:09;5.70;;;5.20;;
66741;SDS011;53654;54.152;19.432;2023-07-20T01:51:37;5.80;;;5.30;;
66741;SDS011;53654;54.152;19.432;2023-07-20T01:54:05;5.40;;;4.90;;
66741;SDS011;53654;54.152;19.432;2023-07-20T01:56:33;5.30;;;4.90;;
66741;SDS011;53654;54.152;19.432;2023-07-20T01:59:01;5.00;;;4.70;;
66741;SDS011;53654;54.152;19.432;2023-07-20T02:01:30;6.00;;;5.50;;
66741;SDS011;53654;54.152;19.432;2023-07-20T02:03:59;6.00;;;5.40;;
66741;SDS011;53654;54.152;19.432;2023-07-20T02:06:26;6.50;;;5.90;;
66741;SDS011;53654;54.152;19.432;2023-07-20T02:08:55;6.30;;;5.70;;
66741;SDS011;53654;54.152;19.432;2023-07-20T02:11:23;6.50;;;6.00;;
66741;SDS011;53654;54.152;19.432;2023-07-20T02:13:51;6.20;;;5.70;;
66741;SDS011;53654;54.152;19.432;2023-07-20T02:16:19;7.00;;;6.30;;
66741;SDS011;53654;54.152;19.432;2023-07-20T02:18:47;6.90;;;6.40;;
66741;SDS011;53654;54.152;19.432;2023-07-20T02:21:15;6.70;;;6.10;;
66741;SDS011;53654;54.152;19.432;2023-07-20T02:23:43;6.90;;;6.30;;
66741;SDS011;53654;54.152;19.432;2023-07-20T02:26:11;7.20;;;6.60;;
66741;SDS011;53654;54.152;19.432;2023-07-20T02:28:39;7.60;;;6.90;;
66741;SDS011;53654;54.152;19.432;2023-07-20T02:31:07;7.80;;;7.10;;
66741;SDS011;53654;54.152;19.432;2023-07-20T02:33:35;7.60;;;7.00;;
66741;SDS011;53654;54.152;19.432;2023-07-20T02:36:03;7.90;;;7.30;;
66741;SDS011;53654;54.152;19.432;2023-07-20T02:38:31;7.70;;;7.10;;
66741;SDS011;53654;54.152;19.432;2023-07-20T02:40:59;7.70;;;7.00;;
66741;SDS011;53654;54.152;19.432;2023-07-20T02:43:27;7.80;;;7.20;;
66741;SDS011;53654;54.152;19.432;2023-07-20T02:45:56;7.40;;;6.90;;
66741;SDS011;53654;54.152;19.432;2023-07-20T02:48:24;7.50;;;7.00;;
66741;SDS011;53654;54.152;19.432;2023-07-20T02:50:52;7.50;;;6.90;;
66741;SDS011;53654;54.152;19.432;2023-07-20T02:53:20;7.20;;;6.60;;
66741;SDS011;53654;54.152;19.432;2023-07-20T02:55:48;7.40;;;6.80;;
66741;SDS011;53654;54.152;19.432;2023-07-20T02:58:16;7.20;;;6.60;;
66741;SDS011;53654;54.152;19.432;2023-07-20T03:00:44;7.30;;;6.60;;
66741;SDS011;53654;54.152;19.432;2023-07-20T03:03:12;7.00;;;6.50;;
66741;SDS011;53654;54.152;19.432;2023-07-20T03:05:41;7.00;;;6.40;;
66741;SDS011;53654;54.152;19.432;2023-07-20T03:08:09;7.20;;;6.70;;
66741;SDS011;53654;54.152;19.432;2023-07-20T03:10:38;7.50;;;6.90;;
66741;SDS011;53654;54.152;19.432;2023-07-20T03:13:08;7.50;;;6.90;;
66741;SDS011;53654;54.152;19.432;2023-07-20T03:15:36;7.40;;;6.80;;
66741;SDS011;53654;54.152;19.432;2023-07-20T03:18:04;7.70;;;7.00;;
66741;SDS011;53654;54.152;19.432;2023-07-20T03:20:32;6.80;;;6.30;;
66741;SDS011;53654;54.152;19.432;2023-07-20T03:23:00;6.90;;;6.30;;
66741;SDS011;53654;54.152;19.432;2023-07-20T03:25:28;7.40;;;6.80;;
66741;SDS011;53654;54.152;19.432;2023-07-20T03:27:57;7.70;;;7.00;;
66741;SDS011;53654;54.152;19.432;2023-07-20T03:30:25;7.60;;;7.00;;
66741;SDS011;53654;54.152;19.432;2023-07-20T03:32:53;7.70;;;7.10;;
66741;SDS011;53654;54.152;19.432;2023-07-20T03:35:21;9.90;;;7.10;;
66741;SDS011;53654;54.152;19.432;2023-07-20T03:37:50;7.30;;;6.70;;
66741;SDS011;53654;54.152;19.432;2023-07-20T03:40:18;7.60;;;6.90;;
66741;SDS011;53654;54.152;19.432;2023-07-20T03:42:46;7.60;;;6.80;;
66741;SDS011;53654;54.152;19.432;2023-07-20T03:45:14;7.20;;;6.70;;
66741;SDS011;53654;54.152;19.432;2023-07-20T03:47:42;6.90;;;6.30;;
66741;SDS011;53654;54.152;19.432;2023-07-20T03:50:12;7.20;;;6.60;;
66741;SDS011;53654;54.152;19.432;2023-07-20T03:52:40;7.00;;;6.30;;
66741;SDS011;53654;54.152;19.432;2023-07-20T03:55:08;7.80;;;7.10;;
66741;SDS011;53654;54.152;19.432;2023-07-20T03:57:36;8.00;;;7.20;;
66741;SDS011;53654;54.152;19.432;2023-07-20T04:00:05;8.60;;;7.80;;
66741;SDS011;53654;54.152;19.432;2023-07-20T04:02:39;8.10;;;7.40;;
66741;SDS011;53654;54.152;19.432;2023-07-20T04:05:07;7.90;;;7.20;;
66741;SDS011;53654;54.152;19.432;2023-07-20T04:07:35;8.00;;;7.30;;
66741;SDS011;53654;54.152;19.432;2023-07-20T04:10:04;7.60;;;6.80;;
66741;SDS011;53654;54.152;19.432;2023-07-20T04:12:32;7.60;;;6.90;;
66741;SDS011;53654;54.152;19.432;2023-07-20T04:15:00;7.50;;;6.70;;
66741;SDS011;53654;54.152;19.432;2023-07-20T04:17:28;6.70;;;6.10;;
66741;SDS011;53654;54.152;19.432;2023-07-20T04:19:57;8.10;;;6.40;;
66741;SDS011;53654;54.152;19.432;2023-07-20T04:22:25;7.30;;;6.50;;
66741;SDS011;53654;54.152;19.432;2023-07-20T04:24:54;7.20;;;6.50;;
66741;SDS011;53654;54.152;19.432;2023-07-20T04:27:22;8.80;;;6.80;;
66741;SDS011;53654;54.152;19.432;2023-07-20T04:29:51;8.60;;;6.00;;
66741;SDS011;53654;54.152;19.432;2023-07-20T04:32:19;6.50;;;5.60;;
66741;SDS011;53654;54.152;19.432;2023-07-20T04:34:47;6.40;;;5.50;;
66741;SDS011;53654;54.152;19.432;2023-07-20T04:37:15;5.90;;;5.30;;
66741;SDS011;53654;54.152;19.432;2023-07-20T04:39:43;6.30;;;5.00;;
66741;SDS011;53654;54.152;19.432;2023-07-20T04:42:11;5.20;;;4.70;;
66741;SDS011;53654;54.152;19.432;2023-07-20T04:44:40;7.40;;;4.70;;
66741;SDS011;53654;54.152;19.432;2023-07-20T04:47:09;5.50;;;4.60;;
66741;SDS011;53654;54.152;19.432;2023-07-20T04:49:38;7.10;;;4.70;;
66741;SDS011;53654;54.152;19.432;2023-07-20T04:52:07;7.00;;;4.70;;
66741;SDS011;53654;54.152;19.432;2023-07-20T04:54:36;7.50;;;4.60;;
66741;SDS011;53654;54.152;19.432;2023-07-20T04:57:09;6.90;;;4.30;;
66741;SDS011;53654;54.152;19.432;2023-07-20T04:59:42;5.50;;;3.90;;
66741;SDS011;53654;54.152;19.432;2023-07-20T05:02:10;5.70;;;3.80;;
66741;SDS011;53654;54.152;19.432;2023-07-20T05:04:38;7.30;;;3.90;;
66741;SDS011;53654;54.152;19.432;2023-07-20T05:07:06;5.80;;;3.50;;
66741;SDS011;53654;54.152;19.432;2023-07-20T05:09:34;6.70;;;3.60;;
66741;SDS011;53654;54.152;19.432;2023-07-20T05:12:03;6.30;;;3.80;;
66741;SDS011;53654;54.152;19.432;2023-07-20T05:14:31;7.60;;;3.30;;
66741;SDS011;53654;54.152;19.432;2023-07-20T05:17:00;7.60;;;3.50;;
66741;SDS011;53654;54.152;19.432;2023-07-20T05:19:28;7.40;;;3.40;;
66741;SDS011;53654;54.152;19.432;2023-07-20T05:21:56;5.50;;;3.40;;
66741;SDS011;53654;54.152;19.432;2023-07-20T05:24:24;6.30;;;5.00;;
66741;SDS011;53654;54.152;19.432;2023-07-20T05:26:52;6.50;;;3.40;;
66741;SDS011;53654;54.152;19.432;2023-07-20T05:29:20;7.20;;;3.50;;
66741;SDS011;53654;54.152;19.432;2023-07-20T05:31:48;6.20;;;3.30;;
66741;SDS011;53654;54.152;19.432;2023-07-20T05:34:16;9.00;;;3.50;;
66741;SDS011;53654;54.152;19.432;2023-07-20T05:36:44;8.80;;;3.10;;
66741;SDS011;53654;54.152;19.432;2023-07-20T05:39:12;7.90;;;3.20;;
66741;SDS011;53654;54.152;19.432;2023-07-20T05:41:40;9.00;;;3.50;;
66741;SDS011;53654;54.152;19.432;2023-07-20T05:44:08;8.00;;;3.70;;
66741;SDS011;53654;54.152;19.432;2023-07-20T05:46:36;8.80;;;3.60;;
66741;SDS011;53654;54.152;19.432;2023-07-20T05:49:21;10.80;;;3.60;;
66741;SDS011;53654;54.152;19.432;2023-07-20T05:51:50;8.50;;;3.70;;
66741;SDS011;53654;54.152;19.432;2023-07-20T05:54:17;7.30;;;3.50;;
66741;SDS011;53654;54.152;19.432;2023-07-20T05:56:47;7.70;;;3.70;;
66741;SDS011;53654;54.152;19.432;2023-07-20T05:59:15;10.30;;;4.00;;
66741;SDS011;53654;54.152;19.432;2023-07-20T06:01:43;8.00;;;4.20;;
66741;SDS011;53654;54.152;19.432;2023-07-20T06:04:12;7.80;;;4.30;;
66741;SDS011;53654;54.152;19.432;2023-07-20T06:06:40;9.90;;;4.00;;
66741;SDS011;53654;54.152;19.432;2023-07-20T06:09:08;10.40;;;3.90;;
66741;SDS011;53654;54.152;19.432;2023-07-20T06:11:39;12.10;;;3.90;;
66741;SDS011;53654;54.152;19.432;2023-07-20T06:14:07;9.70;;;3.80;;
66741;SDS011;53654;54.152;19.432;2023-07-20T06:16:35;13.00;;;4.00;;
66741;SDS011;53654;54.152;19.432;2023-07-20T06:19:03;12.70;;;4.50;;
66741;SDS011;53654;54.152;19.432;2023-07-20T06:21:31;11.90;;;3.70;;
66741;SDS011;53654;54.152;19.432;2023-07-20T06:23:59;9.80;;;3.70;;
66741;SDS011;53654;54.152;19.432;2023-07-20T06:26:28;12.40;;;3.80;;
66741;SDS011;53654;54.152;19.432;2023-07-20T06:28:57;13.50;;;4.20;;
66741;SDS011;53654;54.152;19.432;2023-07-20T06:31:25;11.10;;;3.60;;
66741;SDS011;53654;54.152;19.432;2023-07-20T06:33:53;8.90;;;3.40;;
66741;SDS011;53654;54.152;19.432;2023-07-20T06:36:21;10.10;;;3.50;;
66741;SDS011;53654;54.152;19.432;2023-07-20T06:38:50;10.70;;;3.80;;
66741;SDS011;53654;54.152;19.432;2023-07-20T06:41:21;9.90;;;3.80;;
66741;SDS011;53654;54.152;19.432;2023-07-20T06:43:52;10.40;;;4.30;;
66741;SDS011;53654;54.152;19.432;2023-07-20T06:46:25;12.30;;;3.90;;
66741;SDS011;53654;54.152;19.432;2023-07-20T06:48:54;9.50;;;3.40;;
66741;SDS011;53654;54.152;19.432;2023-07-20T06:51:25;10.80;;;4.00;;
66741;SDS011;53654;54.152;19.432;2023-07-20T06:53:53;11.50;;;3.60;;
66741;SDS011;53654;54.152;19.432;2023-07-20T06:56:21;7.70;;;3.20;;
66741;SDS011;53654;54.152;19.432;2023-07-20T06:58:52;10.10;;;3.00;;
66741;SDS011;53654;54.152;19.432;2023-07-20T07:01:20;7.70;;;3.00;;
66741;SDS011;53654;54.152;19.432;2023-07-20T07:03:50;8.20;;;3.10;;
66741;SDS011;53654;54.152;19.432;2023-07-20T07:06:22;8.80;;;2.70;;
66741;SDS011;53654;54.152;19.432;2023-07-20T07:08:52;7.40;;;2.90;;
66741;SDS011;53654;54.152;19.432;2023-07-20T07:11:22;9.70;;;3.10;;
66741;SDS011;53654;54.152;19.432;2023-07-20T07:13:51;6.90;;;2.80;;
66741;SDS011;53654;54.152;19.432;2023-07-20T07:16:20;8.30;;;2.80;;
66741;SDS011;53654;54.152;19.432;2023-07-20T07:18:50;5.00;;;2.70;;
66741;SDS011;53654;54.152;19.432;2023-07-20T07:21:18;5.10;;;2.20;;
66741;SDS011;53654;54.152;19.432;2023-07-20T07:23:46;5.30;;;2.20;;
66741;SDS011;53654;54.152;19.432;2023-07-20T07:26:15;2.90;;;2.40;;
66741;SDS011;53654;54.152;19.432;2023-07-20T07:28:43;3.50;;;2.10;;
66741;SDS011;53654;54.152;19.432;2023-07-20T07:31:11;4.50;;;2.20;;
66741;SDS011;53654;54.152;19.432;2023-07-20T07:33:39;3.70;;;2.10;;
66741;SDS011;53654;54.152;19.432;2023-07-20T07:36:07;6.60;;;2.20;;
66741;SDS011;53654;54.152;19.432;2023-07-20T07:38:35;3.10;;;1.90;;
66741;SDS011;53654;54.152;19.432;2023-07-20T07:41:23;3.80;;;2.00;;
66741;SDS011;53654;54.152;19.432;2023-07-20T07:43:51;4.00;;;2.00;;
66741;SDS011;53654;54.152;19.432;2023-07-20T07:46:19;3.70;;;1.70;;
66741;SDS011;53654;54.152;19.432;2023-07-20T07:48:48;5.40;;;2.10;;
66741;SDS011;53654;54.152;19.432;2023-07-20T07:51:16;3.10;;;1.70;;
66741;SDS011;53654;54.152;19.432;2023-07-20T07:53:45;2.60;;;1.40;;
66741;SDS011;53654;54.152;19.432;2023-07-20T07:56:13;5.30;;;2.30;;
66741;SDS011;53654;54.152;19.432;2023-07-20T07:58:41;4.90;;;1.90;;
66741;SDS011;53654;54.152;19.432;2023-07-20T08:01:09;2.90;;;1.70;;
66741;SDS011;53654;54.152;19.432;2023-07-20T08:03:37;4.10;;;2.10;;
66741;SDS011;53654;54.152;19.432;2023-07-20T08:06:06;2.60;;;1.70;;
66741;SDS011;53654;54.152;19.432;2023-07-20T08:08:34;2.10;;;1.50;;
66741;SDS011;53654;54.152;19.432;2023-07-20T08:11:04;2.20;;;1.50;;
66741;SDS011;53654;54.152;19.432;2023-07-20T08:13:35;2.90;;;1.20;;
66741;SDS011;53654;54.152;19.432;2023-07-20T08:16:03;1.90;;;1.30;;
66741;SDS011;53654;54.152;19.432;2023-07-20T08:18:31;2.90;;;1.40;;
66741;SDS011;53654;54.152;19.432;2023-07-20T08:21:00;3.60;;;1.60;;
66741;SDS011;53654;54.152;19.432;2023-07-20T08:23:28;2.90;;;1.60;;
66741;SDS011;53654;54.152;19.432;2023-07-20T08:25:56;2.30;;;1.50;;
66741;SDS011;53654;54.152;19.432;2023-07-20T08:28:24;3.30;;;1.40;;
66741;SDS011;53654;54.152;19.432;2023-07-20T08:30:54;2.60;;;1.60;;
66741;SDS011;53654;54.152;19.432;2023-07-20T08:33:22;4.00;;;1.70;;
66741;SDS011;53654;54.152;19.432;2023-07-20T08:35:51;2.70;;;1.40;;
66741;SDS011;53654;54.152;19.432;2023-07-20T08:38:19;3.80;;;3.40;;
66741;SDS011;53654;54.152;19.432;2023-07-20T08:40:51;6.50;;;5.10;;
66741;SDS011;53654;54.152;19.432;2023-07-20T08:43:22;2.90;;;1.50;;
66741;SDS011;53654;54.152;19.432;2023-07-20T08:45:54;1.50;;;1.30;;
66741;SDS011;53654;54.152;19.432;2023-07-20T08:48:25;1.80;;;1.30;;
66741;SDS011;53654;54.152;19.432;2023-07-20T08:50:55;2.40;;;1.40;;
66741;SDS011;53654;54.152;19.432;2023-07-20T08:53:24;2.20;;;1.40;;
66741;SDS011;53654;54.152;19.432;2023-07-20T08:55:52;2.30;;;1.40;;
66741;SDS011;53654;54.152;19.432;2023-07-20T08:58:20;2.60;;;1.40;;
66741;SDS011;53654;54.152;19.432;2023-07-20T09:00:51;1.80;;;1.10;;
66741;SDS011;53654;54.152;19.432;2023-07-20T09:03:20;2.40;;;1.00;;
66741;SDS011;53654;54.152;19.432;2023-07-20T09:05:49;1.90;;;1.20;;
66741;SDS011;53654;54.152;19.432;2023-07-20T09:08:17;2.90;;;1.30;;
66741;SDS011;53654;54.152;19.432;2023-07-20T09:10:45;2.30;;;1.30;;
66741;SDS011;53654;54.152;19.432;2023-07-20T09:13:14;1.50;;;0.90;;
66741;SDS011;53654;54.152;19.432;2023-07-20T09:15:46;1.90;;;1.00;;
66741;SDS011;53654;54.152;19.432;2023-07-20T09:18:28;0.90;;;0.90;;
66741;SDS011;53654;54.152;19.432;2023-07-20T09:20:58;1.20;;;1.00;;
66741;SDS011;53654;54.152;19.432;2023-07-20T09:23:35;1.80;;;1.00;;
66741;SDS011;53654;54.152;19.432;2023-07-20T09:26:11;1.60;;;1.10;;
66741;SDS011;53654;54.152;19.432;2023-07-20T09:29:05;3.20;;;1.20;;
66741;SDS011;53654;54.152;19.432;2023-07-20T09:31:35;1.80;;;1.00;;
66741;SDS011;53654;54.152;19.432;2023-07-20T09:34:07;2.60;;;1.10;;
66741;SDS011;53654;54.152;19.432;2023-07-20T09:36:35;1.30;;;1.10;;
66741;SDS011;53654;54.152;19.432;2023-07-20T09:39:07;1.60;;;1.00;;
66741;SDS011;53654;54.152;19.432;2023-07-20T09:41:41;1.10;;;0.80;;
66741;SDS011;53654;54.152;19.432;2023-07-20T09:44:15;2.30;;;1.10;;
66741;SDS011;53654;54.152;19.432;2023-07-20T09:46:47;2.60;;;2.10;;
66741;SDS011;53654;54.152;19.432;2023-07-20T09:49:18;1.90;;;1.00;;
66741;SDS011;53654;54.152;19.432;2023-07-20T09:51:50;1.20;;;0.80;;
66741;SDS011;53654;54.152;19.432;2023-07-20T09:54:21;0.70;;;0.60;;
66741;SDS011;53654;54.152;19.432;2023-07-20T09:56:51;1.40;;;0.70;;
66741;SDS011;53654;54.152;19.432;2023-07-20T09:59:20;1.40;;;0.70;;
66741;SDS011;53654;54.152;19.432;2023-07-20T10:01:48;0.70;;;0.70;;
66741;SDS011;53654;54.152;19.432;2023-07-20T10:04:18;3.20;;;0.90;;
66741;SDS011;53654;54.152;19.432;2023-07-20T10:06:48;1.10;;;0.70;;
66741;SDS011;53654;54.152;19.432;2023-07-20T10:09:20;0.60;;;0.60;;
66741;SDS011;53654;54.152;19.432;2023-07-20T10:11:51;1.00;;;0.70;;
66741;SDS011;53654;54.152;19.432;2023-07-20T10:14:38;1.00;;;0.70;;
66741;SDS011;53654;54.152;19.432;2023-07-20T10:17:11;0.70;;;0.50;;
66741;SDS011;53654;54.152;19.432;2023-07-20T10:19:44;0.80;;;0.80;;
66741;SDS011;53654;54.152;19.432;2023-07-20T10:22:25;1.40;;;0.60;;
66741;SDS011;53654;54.152;19.432;2023-07-20T10:24:54;1.00;;;0.50;;
66741;SDS011;53654;54.152;19.432;2023-07-20T10:27:26;1.60;;;0.70;;
66741;SDS011;53654;54.152;19.432;2023-07-20T10:29:54;1.30;;;0.70;;
66741;SDS011;53654;54.152;19.432;2023-07-20T10:32:24;1.30;;;0.60;;
66741;SDS011;53654;54.152;19.432;2023-07-20T10:34:52;1.20;;;0.70;;
66741;SDS011;53654;54.152;19.432;2023-07-20T10:40:32;0.70;;;0.70;;
66741;SDS011;53654;54.152;19.432;2023-07-20T10:43:02;0.90;;;0.70;;
66741;SDS011;53654;54.152;19.432;2023-07-20T10:48:23;1.10;;;0.80;;
66741;SDS011;53654;54.152;19.432;2023-07-20T10:51:19;7.00;;;6.50;;
66741;SDS011;53654;54.152;19.432;2023-07-20T10:53:49;3.50;;;1.10;;
66741;SDS011;53654;54.152;19.432;2023-07-20T10:56:23;4.80;;;1.20;;
66741;SDS011;53654;54.152;19.432;2023-07-20T10:58:55;2.00;;;0.90;;
66741;SDS011;53654;54.152;19.432;2023-07-20T11:01:28;3.00;;;1.00;;
66741;SDS011;53654;54.152;19.432;2023-07-20T11:04:00;3.50;;;1.00;;
66741;SDS011;53654;54.152;19.432;2023-07-20T11:06:29;1.10;;;0.90;;
66741;SDS011;53654;54.152;19.432;2023-07-20T11:09:14;2.20;;;0.90;;
66741;SDS011;53654;54.152;19.432;2023-07-20T11:11:43;1.60;;;0.80;;
66741;SDS011;53654;54.152;19.432;2023-07-20T11:14:24;1.20;;;0.80;;
66741;SDS011;53654;54.152;19.432;2023-07-20T11:16:53;1.20;;;0.90;;
66741;SDS011;53654;54.152;19.432;2023-07-20T11:19:24;1.70;;;0.90;;
66741;SDS011;53654;54.152;19.432;2023-07-20T11:21:56;0.70;;;0.70;;
66741;SDS011;53654;54.152;19.432;2023-07-20T11:24:28;1.30;;;0.90;;
66741;SDS011;53654;54.152;19.432;2023-07-20T11:26:56;0.90;;;0.80;;
66741;SDS011;53654;54.152;19.432;2023-07-20T11:29:24;2.30;;;1.10;;
66741;SDS011;53654;54.152;19.432;2023-07-20T11:32:01;2.40;;;1.00;;
66741;SDS011;53654;54.152;19.432;2023-07-20T11:34:33;2.00;;;1.00;;
66741;SDS011;53654;54.152;19.432;2023-07-20T11:37:03;8.30;;;1.50;;
66741;SDS011;53654;54.152;19.432;2023-07-20T11:39:36;3.90;;;1.30;;
66741;SDS011;53654;54.152;19.432;2023-07-20T11:42:04;6.20;;;2.60;;
66741;SDS011;53654;54.152;19.432;2023-07-20T11:44:32;3.80;;;1.90;;
66741;SDS011;53654;54.152;19.432;2023-07-20T11:47:08;1.80;;;1.40;;
66741;SDS011;53654;54.152;19.432;2023-07-20T11:49:41;2.60;;;1.70;;
66741;SDS011;53654;54.152;19.432;2023-07-20T11:52:13;2.40;;;1.40;;
66741;SDS011;53654;54.152;19.432;2023-07-20T11:54:43;1.80;;;1.30;;
66741;SDS011;53654;54.152;19.432;2023-07-20T11:57:16;2.10;;;1.20;;
66741;SDS011;53654;54.152;19.432;2023-07-20T11:59:54;1.50;;;1.30;;
66741;SDS011;53654;54.152;19.432;2023-07-20T12:02:27;2.00;;;1.50;;
66741;SDS011;53654;54.152;19.432;2023-07-20T12:04:56;4.50;;;2.20;;
66741;SDS011;53654;54.152;19.432;2023-07-20T12:07:26;5.60;;;2.70;;
66741;SDS011;53654;54.152;19.432;2023-07-20T12:10:02;3.90;;;2.20;;
66741;SDS011;53654;54.152;19.432;2023-07-20T12:12:34;3.30;;;2.10;;
66741;SDS011;53654;54.152;19.432;2023-07-20T12:17:50;3.00;;;2.10;;
66741;SDS011;53654;54.152;19.432;2023-07-20T12:20:32;3.40;;;2.10;;
66741;SDS011;53654;54.152;19.432;2023-07-20T12:28:15;3.10;;;2.10;;
66741;SDS011;53654;54.152;19.432;2023-07-20T12:30:45;2.10;;;1.70;;
66741;SDS011;53654;54.152;19.432;2023-07-20T12:33:14;2.00;;;1.70;;
66741;SDS011;53654;54.152;19.432;2023-07-20T12:35:44;2.00;;;1.70;;
66741;SDS011;53654;54.152;19.432;2023-07-20T12:38:12;1.70;;;1.20;;
66741;SDS011;53654;54.152;19.432;2023-07-20T12:40:41;1.20;;;1.10;;
66741;SDS011;53654;54.152;19.432;2023-07-20T12:43:10;1.10;;;1.00;;
66741;SDS011;53654;54.152;19.432;2023-07-20T12:45:38;1.80;;;1.30;;
66741;SDS011;53654;54.152;19.432;2023-07-20T12:48:06;1.30;;;1.20;;
66741;SDS011;53654;54.152;19.432;2023-07-20T12:50:37;1.30;;;1.20;;
66741;SDS011;53654;54.152;19.432;2023-07-20T12:53:05;1.50;;;1.20;;
66741;SDS011;53654;54.152;19.432;2023-07-20T12:55:34;1.30;;;1.20;;
66741;SDS011;53654;54.152;19.432;2023-07-20T12:58:02;1.40;;;1.20;;
66741;SDS011;53654;54.152;19.432;2023-07-20T13:00:31;1.20;;;1.10;;
66741;SDS011;53654;54.152;19.432;2023-07-20T13:02:59;1.60;;;1.10;;
66741;SDS011;53654;54.152;19.432;2023-07-20T13:05:33;1.30;;;1.20;;
66741;SDS011;53654;54.152;19.432;2023-07-20T13:08:04;1.10;;;1.00;;
66741;SDS011;53654;54.152;19.432;2023-07-20T13:10:36;1.10;;;1.00;;
66741;SDS011;53654;54.152;19.432;2023-07-20T13:13:04;0.90;;;0.90;;
66741;SDS011;53654;54.152;19.432;2023-07-20T13:15:40;1.20;;;1.10;;
66741;SDS011;53654;54.152;19.432;2023-07-20T13:18:10;1.30;;;1.00;;
66741;SDS011;53654;54.152;19.432;2023-07-20T13:20:38;1.00;;;0.90;;
66741;SDS011;53654;54.152;19.432;2023-07-20T13:23:06;1.00;;;1.00;;
66741;SDS011;53654;54.152;19.432;2023-07-20T13:25:34;0.80;;;0.80;;
66741;SDS011;53654;54.152;19.432;2023-07-20T13:28:03;0.90;;;0.90;;
66741;SDS011;53654;54.152;19.432;2023-07-20T13:30:31;1.10;;;1.00;;
66741;SDS011;53654;54.152;19.432;2023-07-20T13:33:00;1.20;;;1.10;;
66741;SDS011;53654;54.152;19.432;2023-07-20T13:35:33;1.60;;;1.20;;
66741;SDS011;53654;54.152;19.432;2023-07-20T13:38:04;1.10;;;1.00;;
66741;SDS011;53654;54.152;19.432;2023-07-20T13:40:32;1.00;;;1.00;;
66741;SDS011;53654;54.152;19.432;2023-07-20T13:43:00;0.90;;;0.90;;
66741;SDS011;53654;54.152;19.432;2023-07-20T13:45:28;1.30;;;1.00;;
66741;SDS011;53654;54.152;19.432;2023-07-20T13:47:57;1.30;;;1.00;;
66741;SDS011;53654;54.152;19.432;2023-07-20T13:50:30;1.70;;;0.90;;
66741;SDS011;53654;54.152;19.432;2023-07-20T13:53:09;1.00;;;0.90;;
66741;SDS011;53654;54.152;19.432;2023-07-20T13:55:40;1.90;;;1.10;;
66741;SDS011;53654;54.152;19.432;2023-07-20T13:58:11;1.30;;;1.20;;
66741;SDS011;53654;54.152;19.432;2023-07-20T14:00:40;2.00;;;1.20;;
66741;SDS011;53654;54.152;19.432;2023-07-20T14:03:08;1.90;;;1.00;;
66741;SDS011;53654;54.152;19.432;2023-07-20T14:05:40;1.10;;;1.00;;
66741;SDS011;53654;54.152;19.432;2023-07-20T14:08:11;1.30;;;0.90;;
66741;SDS011;53654;54.152;19.432;2023-07-20T14:10:39;1.00;;;0.90;;
66741;SDS011;53654;54.152;19.432;2023-07-20T14:13:10;1.20;;;0.90;;
66741;SDS011;53654;54.152;19.432;2023-07-20T14:15:38;1.30;;;1.00;;
66741;SDS011;53654;54.152;19.432;2023-07-20T14:18:07;2.10;;;1.00;;
66741;SDS011;53654;54.152;19.432;2023-07-20T14:20:35;1.60;;;1.20;;
66741;SDS011;53654;54.152;19.432;2023-07-20T14:23:05;1.90;;;1.10;;
66741;SDS011;53654;54.152;19.432;2023-07-20T14:25:34;2.00;;;1.80;;
66741;SDS011;53654;54.152;19.432;2023-07-20T14:28:05;1.30;;;1.20;;
66741;SDS011;53654;54.152;19.432;2023-07-20T14:30:33;1.50;;;0.90;;
66741;SDS011;53654;54.152;19.432;2023-07-20T14:33:01;1.30;;;1.20;;
66741;SDS011;53654;54.152;19.432;2023-07-20T14:35:29;4.30;;;3.90;;
66741;SDS011;53654;54.152;19.432;2023-07-20T14:37:58;1.70;;;1.60;;
66741;SDS011;53654;54.152;19.432;2023-07-20T14:40:27;1.20;;;1.00;;
66741;SDS011;53654;54.152;19.432;2023-07-20T14:42:55;1.80;;;0.90;;
66741;SDS011;53654;54.152;19.432;2023-07-20T14:45:24;1.00;;;1.00;;
66741;SDS011;53654;54.152;19.432;2023-07-20T14:47:59;1.90;;;1.00;;
66741;SDS011;53654;54.152;19.432;2023-07-20T14:50:27;1.30;;;1.20;;
66741;SDS011;53654;54.152;19.432;2023-07-20T14:52:56;1.40;;;1.30;;
66741;SDS011;53654;54.152;19.432;2023-07-20T14:55:24;1.30;;;1.10;;
66741;SDS011;53654;54.152;19.432;2023-07-20T14:57:53;1.30;;;1.20;;
66741;SDS011;53654;54.152;19.432;2023-07-20T15:00:21;1.30;;;0.80;;
66741;SDS011;53654;54.152;19.432;2023-07-20T15:02:49;0.90;;;0.90;;
66741;SDS011;53654;54.152;19.432;2023-07-20T15:05:20;2.10;;;2.00;;
66741;SDS011;53654;54.152;19.432;2023-07-20T15:07:50;1.00;;;1.00;;
66741;SDS011;53654;54.152;19.432;2023-07-20T15:10:18;1.20;;;1.10;;